createdAt,value
2019-04-23T00:05:07.961Z,76.60
2019-04-23T00:10:25.264Z,76.90
2019-04-23T00:15:17.081Z,76.40
2019-04-23T00:20:33.915Z,76.40
2019-04-23T00:26:02.727Z,76.90
2019-04-23T00:31:13.446Z,76.70
2019-04-23T00:36:24.210Z,76.80
2019-04-23T00:41:33.479Z,77.20
2019-04-23T00:46:36.807Z,77.10
2019-04-23T00:51:42.530Z,77.60
2019-04-23T00:57:00.747Z,77.60
2019-04-23T01:02:00.723Z,77.80
2019-04-23T01:07:36.536Z,77.90
2019-04-23T01:17:55.997Z,77.60
2019-04-23T01:22:38.021Z,77.50
2019-04-23T01:28:17.471Z,77.50
2019-04-23T01:33:27.161Z,78.00
2019-04-23T01:38:35.573Z,78.50
2019-04-23T01:43:42.848Z,78.80
2019-04-23T01:59:07.367Z,79.00
2019-04-23T02:04:18.658Z,79.00
2019-04-23T02:09:27.318Z,79.30
2019-04-23T02:24:55.839Z,83.50
2019-04-23T02:30:15.802Z,88.20
2019-04-23T02:35:26.030Z,85.80
2019-04-23T02:40:30.357Z,87.80
2019-04-23T02:50:40.212Z,89.20
2019-04-23T03:11:20.357Z,97.30
2019-04-23T03:21:59.739Z,92.80
2019-04-23T03:47:58.969Z,90.50
2019-04-23T03:52:51.130Z,91.20
2019-04-23T04:03:24.133Z,90.10
2019-04-23T04:13:30.605Z,91.50
2019-04-23T04:18:57.318Z,91.20
2019-04-23T04:24:01.623Z,91.70
2019-04-23T04:45:37.004Z,91.60
2019-04-23T04:50:04.716Z,91.00
2019-04-23T05:00:42.982Z,91.10
2019-04-23T05:11:07.628Z,92.30
2019-04-23T05:16:01.833Z,92.20
2019-04-23T05:21:08.128Z,91.60
2019-04-23T05:26:17.811Z,92.20
2019-04-23T05:31:18.672Z,92.10
2019-04-23T05:36:32.278Z,91.30
2019-04-23T05:46:49.066Z,90.90
2019-04-23T05:52:00.324Z,91.30
2019-04-23T05:57:02.873Z,93.70
2019-04-23T06:02:20.427Z,93.10
2019-04-23T06:12:50.900Z,93.00
2019-04-23T06:17:47.550Z,93.80
2019-04-23T06:22:56.122Z,93.20
2019-04-23T06:28:11.149Z,90.70
2019-04-23T06:33:19.765Z,89.80
2019-04-23T06:43:38.790Z,89.00
2019-04-23T06:48:40.876Z,88.90
2019-04-23T06:53:43.708Z,89.40
2019-04-23T06:58:48.961Z,87.20
2019-04-23T07:04:05.245Z,86.40
2019-04-23T07:14:14.777Z,86.90
2019-04-23T07:19:31.942Z,85.00
2019-04-23T07:24:40.568Z,86.10
2019-04-23T07:35:04.213Z,85.50
2019-04-23T07:40:27.182Z,84.10
2019-04-23T07:45:30.993Z,81.80
2019-04-23T07:55:53.196Z,82.30
2019-04-23T08:01:08.386Z,81.70
2019-04-23T08:06:00.646Z,81.40
2019-04-23T08:21:33.374Z,81.90
2019-04-23T08:26:55.194Z,80.50
2019-04-23T08:32:09.021Z,79.90
2019-04-23T08:47:37.820Z,77.50
2019-04-23T08:52:47.192Z,76.90
2019-04-23T08:57:47.132Z,80.60
2019-04-23T09:03:04.894Z,82.40
2019-04-23T09:08:14.509Z,81.20
2019-04-23T09:13:43.809Z,83.00
2019-04-23T09:18:26.305Z,81.90
2019-04-23T09:23:45.132Z,78.90
2019-04-23T09:34:07.534Z,78.40
2019-04-23T09:39:32.962Z,76.60
2019-04-23T09:44:58.208Z,77.00
2019-04-23T09:50:01.257Z,75.20
2019-04-23T09:55:16.062Z,76.20
2019-04-23T10:00:25.722Z,74.40
2019-04-23T10:05:11.277Z,66.90
2019-04-23T10:10:05.395Z,67.60
2019-04-23T10:15:21.061Z,65.90
2019-04-23T10:20:20.459Z,66.90
2019-04-23T10:25:30.184Z,66.20
2019-04-23T10:30:36.702Z,65.50
2019-04-23T10:35:52.564Z,66.10
2019-04-23T10:40:52.123Z,65.50
2019-04-23T10:46:43.135Z,66.60
2019-04-23T10:57:03.960Z,65.20
2019-04-23T11:13:10.655Z,65.00
2019-04-23T11:23:37.681Z,65.70
2019-04-23T11:28:51.910Z,63.80
2019-04-23T11:39:17.066Z,64.70
2019-04-23T11:44:23.611Z,64.40
2019-04-23T11:49:34.520Z,64.90
2019-04-23T11:54:30.725Z,63.70
2019-04-23T12:05:09.360Z,62.60
2019-04-23T12:10:26.983Z,62.60
2019-04-23T12:25:47.487Z,64.20
2019-04-23T12:30:50.266Z,64.60
2019-04-23T12:36:29.241Z,64.00
2019-04-23T12:41:31.947Z,63.30
2019-04-23T12:46:39.915Z,62.10
2019-04-23T12:51:47.254Z,61.70
2019-04-23T12:57:14.754Z,60.60
2019-04-23T13:02:08.151Z,60.90
2019-04-23T13:07:17.551Z,60.80
2019-04-23T13:12:29.303Z,61.90
2019-04-23T13:17:42.283Z,61.00
2019-04-23T13:22:49.464Z,62.60
2019-04-23T13:33:17.566Z,62.20
2019-04-23T13:38:23.614Z,63.40
2019-04-23T13:48:34.445Z,61.40
2019-04-23T13:58:48.838Z,60.60
2019-04-23T14:04:04.077Z,60.10
2019-04-23T14:14:22.210Z,58.40
2019-04-23T14:19:17.544Z,57.00
2019-04-23T14:24:38.194Z,58.20
2019-04-23T14:29:56.214Z,59.20
2019-04-23T14:35:10.957Z,61.80
2019-04-23T14:46:04.848Z,60.30
2019-04-23T14:51:02.399Z,59.80
2019-04-23T14:56:13.236Z,59.30
2019-04-23T15:01:27.197Z,59.10
2019-04-23T15:11:35.315Z,56.40
2019-04-23T15:22:04.706Z,53.40
2019-04-23T15:32:07.734Z,53.40
2019-04-23T15:42:25.357Z,54.50
2019-04-23T15:47:32.987Z,53.30
2019-04-23T15:52:48.409Z,54.80
2019-04-23T16:02:27.253Z,51.20
2019-04-23T16:07:53.321Z,52.90
2019-04-23T16:13:14.921Z,52.20
2019-04-23T16:23:41.161Z,51.70
2019-04-23T16:29:23.386Z,51.70
2019-04-23T16:39:16.928Z,55.90
2019-04-23T16:44:39.358Z,58.10
2019-04-23T16:49:57.569Z,56.40
2019-04-23T16:54:58.541Z,56.40
2019-04-23T17:05:14.314Z,54.90
2019-04-23T17:10:23.972Z,56.50
2019-04-23T17:15:28.112Z,57.90
2019-04-23T17:20:50.591Z,61.10
2019-04-23T17:26:02.648Z,63.50
2019-04-23T17:31:26.320Z,64.70
2019-04-23T17:36:37.857Z,65.30
2019-04-23T17:42:12.523Z,66.70
2019-04-23T17:47:47.910Z,66.90
2019-04-23T17:53:11.094Z,67.60
2019-04-23T17:58:01.421Z,67.90
2019-04-23T18:03:08.902Z,68.10
2019-04-23T18:08:11.156Z,68.80
2019-04-23T18:13:27.717Z,69.30
2019-04-23T18:18:39.289Z,70.40
2019-04-23T18:24:30.478Z,71.60
2019-04-23T18:29:38.497Z,71.80
2019-04-23T18:34:48.922Z,72.70
2019-04-23T18:39:58.941Z,74.30
2019-04-23T18:45:39.104Z,75.80
2019-04-23T18:51:00.345Z,76.80
2019-04-23T19:01:25.799Z,76.70
2019-04-23T19:06:32.589Z,76.80
2019-04-23T19:12:19.401Z,76.70
2019-04-23T19:27:37.001Z,79.90
2019-04-23T19:32:43.222Z,80.00
2019-04-23T19:38:08.391Z,82.10
2019-04-23T19:42:56.738Z,81.90
2019-04-23T19:58:23.940Z,81.80
2019-04-23T20:03:37.071Z,77.30
2019-04-23T20:13:50.800Z,76.70
2019-04-23T20:18:54.565Z,78.00
2019-04-23T20:24:11.178Z,74.00
2019-04-23T20:35:05.078Z,72.70
2019-04-23T20:40:11.412Z,75.00
2019-04-23T20:50:16.430Z,79.90
2019-04-23T20:55:47.052Z,82.20
2019-04-23T21:00:57.166Z,82.60
2019-04-23T21:05:50.505Z,82.30
2019-04-23T21:10:55.657Z,80.30
2019-04-23T21:16:12.891Z,78.80
2019-04-23T21:26:37.074Z,78.40
2019-04-23T21:31:40.560Z,77.60
2019-04-23T21:36:52.195Z,78.20
2019-04-23T21:47:15.408Z,80.90
2019-04-23T21:52:26.614Z,81.90
2019-04-23T21:57:44.058Z,83.00
2019-04-23T22:18:12.815Z,87.20
2019-04-23T22:23:33.314Z,87.30
2019-04-23T22:28:42.801Z,87.30
2019-04-23T22:33:46.595Z,87.70
2019-04-23T22:38:51.110Z,88.60
2019-04-23T22:44:07.116Z,89.70
2019-04-23T22:54:31.720Z,89.60
2019-04-23T23:00:00.949Z,90.10
2019-04-23T23:05:02.396Z,90.20
2019-04-23T23:10:02.365Z,90.80
2019-04-23T23:15:10.251Z,91.30
2019-04-23T23:25:24.657Z,91.70
2019-04-23T23:30:42.542Z,90.30
2019-04-23T23:35:38.992Z,91.00
2019-04-23T23:46:10.487Z,89.60
2019-04-23T23:51:09.957Z,89.80
2019-04-23T23:56:19.446Z,90.00
